createdAt,value
2023-05-18T00:01:24.649Z,10.10
2023-05-18T00:03:54.368Z,10.10
2023-05-18T00:06:22.728Z,10.10
2023-05-18T00:08:50.057Z,10.20
2023-05-18T00:11:17.909Z,10.20
2023-05-18T00:13:45.862Z,10.10
2023-05-18T00:16:15.969Z,10.10
2023-05-18T00:18:45.239Z,10.20
2023-05-18T00:21:13.400Z,10.20
2023-05-18T00:23:42.320Z,10.10
2023-05-18T00:26:09.561Z,10.10
2023-05-18T00:28:36.881Z,10.20
2023-05-18T00:31:04.484Z,10.20
2023-05-18T00:33:31.742Z,10.10
2023-05-18T00:35:59.443Z,10.10
2023-05-18T00:38:26.693Z,10.20
2023-05-18T00:40:54.089Z,10.10
2023-05-18T00:43:21.359Z,10.10
2023-05-18T00:45:48.691Z,10.10
2023-05-18T00:48:16.039Z,10.10
2023-05-18T00:50:43.449Z,10.10
2023-05-18T00:53:10.906Z,10.10
2023-05-18T00:55:38.490Z,10.10
2023-05-18T00:58:05.866Z,10.10
2023-05-18T01:00:34.011Z,10.10
2023-05-18T01:03:02.342Z,10.20
2023-05-18T01:05:30.178Z,10.10
2023-05-18T01:07:58.103Z,10.20
2023-05-18T01:10:25.589Z,10.20
2023-05-18T01:13:09.979Z,10.20
2023-05-18T01:15:39.814Z,10.20
2023-05-18T01:18:21.922Z,10.20
2023-05-18T01:21:04.817Z,10.20
2023-05-18T01:23:52.420Z,10.20
2023-05-18T01:26:41.605Z,10.20
2023-05-18T01:29:11.502Z,10.20
2023-05-18T01:31:39.969Z,10.20
2023-05-18T01:34:07.383Z,10.20
2023-05-18T01:36:34.737Z,10.20
2023-05-18T01:39:03.778Z,10.30
2023-05-18T01:41:34.982Z,10.20
2023-05-18T01:44:06.520Z,10.20
2023-05-18T01:47:04.322Z,10.20
2023-05-18T01:49:39.325Z,10.20
2023-05-18T01:52:10.716Z,10.30
2023-05-18T01:54:42.088Z,10.20
2023-05-18T01:57:10.128Z,10.20
2023-05-18T01:59:41.950Z,10.20
2023-05-18T02:02:09.286Z,10.10
2023-05-18T02:04:36.633Z,10.10
2023-05-18T02:07:03.989Z,10.10
2023-05-18T02:09:31.423Z,10.10
2023-05-18T02:11:58.934Z,10.10
2023-05-18T02:14:26.249Z,10.10
2023-05-18T02:16:53.582Z,10.20
2023-05-18T02:19:22.189Z,10.20
2023-05-18T02:21:49.538Z,10.10
2023-05-18T02:24:18.437Z,10.20
2023-05-18T02:26:45.959Z,10.20
2023-05-18T02:29:14.788Z,10.20
2023-05-18T02:31:42.387Z,10.20
2023-05-18T02:34:10.488Z,10.10
2023-05-18T02:36:40.011Z,10.00
2023-05-18T02:39:07.877Z,9.90
2023-05-18T02:41:36.358Z,9.80
2023-05-18T02:44:04.746Z,9.90
2023-05-18T02:46:32.541Z,9.70
2023-05-18T02:49:00.889Z,9.70
2023-05-18T02:51:28.327Z,9.70
2023-05-18T02:53:55.606Z,9.70
2023-05-18T02:56:23.439Z,9.80
2023-05-18T02:58:50.649Z,9.90
2023-05-18T03:01:18.007Z,9.90
2023-05-18T03:03:45.352Z,9.60
2023-05-18T03:06:14.122Z,9.60
2023-05-18T03:08:42.646Z,9.50
2023-05-18T03:11:09.963Z,9.40
2023-05-18T03:13:37.223Z,9.30
2023-05-18T03:16:05.461Z,9.40
2023-05-18T03:18:32.714Z,9.30
2023-05-18T03:21:02.209Z,9.20
2023-05-18T03:23:30.292Z,9.20
2023-05-18T03:25:57.757Z,9.40
2023-05-18T03:28:25.017Z,9.40
2023-05-18T03:30:52.307Z,9.50
2023-05-18T03:33:19.739Z,9.50
2023-05-18T03:35:48.601Z,9.60
2023-05-18T03:38:16.273Z,9.60
2023-05-18T03:40:43.573Z,9.60
2023-05-18T03:43:11.008Z,9.50
2023-05-18T03:45:38.342Z,9.60
2023-05-18T03:48:06.412Z,9.60
2023-05-18T03:50:33.927Z,9.60
2023-05-18T03:53:01.311Z,9.50
2023-05-18T03:55:30.136Z,9.50
2023-05-18T03:57:59.221Z,9.60
2023-05-18T04:00:26.697Z,9.60
2023-05-18T04:02:54.082Z,9.70
2023-05-18T04:05:21.467Z,9.70
2023-05-18T04:07:50.176Z,9.70
2023-05-18T04:10:19.711Z,9.70
2023-05-18T04:12:47.050Z,9.70
2023-05-18T04:15:17.417Z,9.70
2023-05-18T04:17:46.009Z,9.80
2023-05-18T04:20:14.780Z,9.80
2023-05-18T04:22:43.699Z,9.80
2023-05-18T04:25:11.772Z,9.90
2023-05-18T04:27:40.399Z,9.90
2023-05-18T04:30:10.762Z,9.90
2023-05-18T04:32:39.334Z,9.90
2023-05-18T04:35:07.662Z,9.90
2023-05-18T04:37:35.410Z,10.00
2023-05-18T04:40:07.498Z,10.00
2023-05-18T04:42:35.710Z,10.00
2023-05-18T04:45:05.933Z,10.10
2023-05-18T04:47:33.265Z,10.20
2023-05-18T04:50:00.651Z,10.20
2023-05-18T04:52:30.866Z,10.20
2023-05-18T04:54:58.146Z,10.30
2023-05-18T04:57:25.498Z,10.30
2023-05-18T04:59:53.543Z,10.40
2023-05-18T05:02:21.134Z,10.50
2023-05-18T05:04:49.591Z,10.60
2023-05-18T05:07:16.895Z,10.70
2023-05-18T05:09:44.140Z,10.80
2023-05-18T05:12:11.375Z,10.80
2023-05-18T05:14:38.669Z,10.80
2023-05-18T05:17:05.959Z,10.80
2023-05-18T05:19:33.318Z,10.70
2023-05-18T05:22:00.792Z,10.80
2023-05-18T05:24:28.140Z,10.90
2023-05-18T05:26:55.503Z,11.00
2023-05-18T05:29:26.601Z,10.90
2023-05-18T05:31:56.420Z,10.90
2023-05-18T05:34:23.821Z,10.90
2023-05-18T05:36:54.359Z,10.80
2023-05-18T05:39:21.629Z,10.80
2023-05-18T05:41:51.698Z,10.90
2023-05-18T05:44:21.553Z,10.90
2023-05-18T05:46:49.120Z,11.00
2023-05-18T05:49:16.465Z,11.10
2023-05-18T05:51:43.776Z,11.10
2023-05-18T05:54:13.673Z,11.10
2023-05-18T05:56:46.956Z,11.20
2023-05-18T05:59:14.212Z,11.20
2023-05-18T06:01:41.781Z,11.30
2023-05-18T06:04:12.599Z,11.40
2023-05-18T06:06:40.219Z,11.30
2023-05-18T06:09:07.750Z,11.40
2023-05-18T06:11:35.484Z,11.30
2023-05-18T06:14:02.953Z,11.40
2023-05-18T06:16:30.430Z,11.20
2023-05-18T06:18:58.113Z,11.00
2023-05-18T06:21:25.574Z,11.00
2023-05-18T06:23:52.841Z,11.00
2023-05-18T06:26:20.196Z,11.00
2023-05-18T06:28:47.550Z,11.00
2023-05-18T06:31:15.399Z,11.00
2023-05-18T06:33:42.804Z,11.10
2023-05-18T06:36:10.168Z,11.10
2023-05-18T06:38:56.176Z,11.30
2023-05-18T06:41:41.901Z,11.50
2023-05-18T06:44:27.430Z,11.60
2023-05-18T06:47:13.504Z,11.80
2023-05-18T06:49:42.448Z,12.10
2023-05-18T06:52:10.210Z,12.40
2023-05-18T06:54:40.069Z,12.40
2023-05-18T06:57:07.504Z,12.40
2023-05-18T06:59:35.125Z,12.70
2023-05-18T07:02:02.749Z,12.80
2023-05-18T07:04:30.268Z,13.10
2023-05-18T07:06:57.710Z,13.50
2023-05-18T07:09:27.229Z,13.60
2023-05-18T07:11:54.882Z,13.70
2023-05-18T07:14:22.953Z,13.80
2023-05-18T07:16:50.202Z,13.90
2023-05-18T07:19:17.773Z,14.10
2023-05-18T07:21:45.107Z,14.20
2023-05-18T07:24:12.359Z,14.30
2023-05-18T07:26:39.666Z,14.50
2023-05-18T07:29:06.950Z,14.30
2023-05-18T07:34:09.534Z,14.70
2023-05-18T07:36:36.963Z,15.00
2023-05-18T07:39:04.477Z,15.10
2023-05-18T07:41:32.070Z,15.00
2023-05-18T07:43:59.498Z,14.70
2023-05-18T07:46:26.822Z,15.10
2023-05-18T07:48:54.273Z,15.40
2023-05-18T07:51:21.739Z,15.20
2023-05-18T07:53:48.995Z,15.60
2023-05-18T07:56:16.309Z,15.70
2023-05-18T07:58:44.727Z,15.80
2023-05-18T08:01:11.962Z,16.00
2023-05-18T08:03:39.389Z,16.10
2023-05-18T08:06:11.511Z,16.10
2023-05-18T08:08:39.058Z,15.80
2023-05-18T08:11:06.288Z,15.70
2023-05-18T08:13:34.322Z,15.60
2023-05-18T08:16:11.265Z,15.50
2023-05-18T08:18:39.989Z,15.80
2023-05-18T08:21:10.487Z,16.20
2023-05-18T08:23:38.751Z,16.60
2023-05-18T08:26:06.390Z,16.80
2023-05-18T08:28:33.631Z,16.60
2023-05-18T08:31:01.161Z,16.70
2023-05-18T08:33:28.525Z,16.90
2023-05-18T08:35:56.747Z,17.00
2023-05-18T08:38:23.957Z,17.50
2023-05-18T08:41:02.833Z,17.60
2023-05-18T08:43:33.562Z,16.90
2023-05-18T08:46:26.508Z,16.90
2023-05-18T08:48:55.019Z,17.10
2023-05-18T08:51:22.941Z,16.90
2023-05-18T08:53:54.181Z,17.20
2023-05-18T08:56:25.324Z,17.20
2023-05-18T08:58:57.076Z,17.20
2023-05-18T09:01:29.261Z,17.50
2023-05-18T09:03:58.383Z,17.30
2023-05-18T09:06:26.322Z,17.40
2023-05-18T09:08:54.488Z,17.30
2023-05-18T09:11:27.097Z,17.70
2023-05-18T09:13:55.165Z,17.50
2023-05-18T09:16:22.557Z,17.50
2023-05-18T09:18:50.037Z,17.70
2023-05-18T09:21:17.343Z,17.60
2023-05-18T09:23:44.938Z,17.60
2023-05-18T09:26:13.457Z,17.80
2023-05-18T09:28:42.832Z,17.80
2023-05-18T09:31:21.130Z,17.80
2023-05-18T09:33:48.858Z,17.80
2023-05-18T09:36:16.632Z,18.00
2023-05-18T09:38:48.399Z,18.00
2023-05-18T09:41:17.636Z,17.70
2023-05-18T09:43:47.933Z,17.50
2023-05-18T09:46:15.280Z,18.10
2023-05-18T09:48:45.515Z,18.60
2023-05-18T09:51:16.755Z,18.80
2023-05-18T09:53:56.260Z,18.60
2023-05-18T09:56:27.434Z,18.50
2023-05-18T09:58:55.886Z,18.60
2023-05-18T10:01:25.658Z,18.50
2023-05-18T10:03:56.216Z,18.30
2023-05-18T10:06:27.465Z,18.40
2023-05-18T10:08:58.244Z,18.70
2023-05-18T10:11:27.588Z,18.80
2023-05-18T10:13:58.107Z,18.90
2023-05-18T10:16:25.927Z,19.00
2023-05-18T10:18:55.731Z,19.20
2023-05-18T10:21:27.994Z,19.40
2023-05-18T10:23:55.668Z,18.90
2023-05-18T10:26:26.413Z,19.10
2023-05-18T10:28:55.826Z,19.20
2023-05-18T10:31:24.686Z,19.00
2023-05-18T10:33:53.340Z,19.20
2023-05-18T10:36:22.227Z,19.10
2023-05-18T10:38:50.106Z,19.30
2023-05-18T10:41:21.720Z,19.30
2023-05-18T10:43:49.680Z,18.90
2023-05-18T10:46:17.346Z,18.90
2023-05-18T10:48:50.177Z,19.10
2023-05-18T10:51:19.339Z,19.10
2023-05-18T10:53:47.887Z,19.30
2023-05-18T10:56:18.788Z,19.00
2023-05-18T10:58:46.953Z,19.10
2023-05-18T11:01:16.333Z,18.90
2023-05-18T11:03:43.712Z,18.90
2023-05-18T11:06:12.969Z,18.90
2023-05-18T11:08:50.949Z,18.70
2023-05-18T11:11:23.477Z,18.90
2023-05-18T11:13:54.375Z,19.40
2023-05-18T11:16:23.853Z,19.30
2023-05-18T11:18:53.318Z,19.70
2023-05-18T11:21:20.753Z,19.10
2023-05-18T11:24:18.855Z,18.80
2023-05-18T11:26:48.687Z,18.70
2023-05-18T11:29:20.568Z,18.60
2023-05-18T11:31:53.949Z,18.70
2023-05-18T11:34:40.038Z,19.20
2023-05-18T11:37:10.458Z,19.70
2023-05-18T11:39:47.973Z,19.60
2023-05-18T11:42:20.650Z,19.80
2023-05-18T11:44:56.014Z,19.40
2023-05-18T11:47:31.715Z,19.30
2023-05-18T11:50:00.536Z,19.40
2023-05-18T11:52:28.163Z,19.70
2023-05-18T11:54:57.225Z,20.00
2023-05-18T11:57:34.666Z,20.30
2023-05-18T12:00:08.122Z,20.00
2023-05-18T12:02:35.745Z,19.90
2023-05-18T12:05:08.473Z,19.70
2023-05-18T12:07:37.142Z,19.60
2023-05-18T12:10:17.252Z,19.80
2023-05-18T12:12:49.560Z,20.20
2023-05-18T12:15:17.552Z,20.20
2023-05-18T12:17:47.972Z,20.10
2023-05-18T12:20:20.378Z,19.80
2023-05-18T12:22:53.382Z,19.90
2023-05-18T12:25:25.746Z,19.50
2023-05-18T12:27:54.819Z,19.40
2023-05-18T12:30:24.304Z,19.00
2023-05-18T12:32:56.866Z,19.00
2023-05-18T12:35:28.424Z,18.90
2023-05-18T12:37:58.218Z,18.50
2023-05-18T12:40:25.557Z,18.40
2023-05-18T12:43:00.315Z,18.50
2023-05-18T12:45:33.041Z,18.60
2023-05-18T12:48:08.654Z,18.50
2023-05-18T12:50:37.383Z,18.40
2023-05-18T12:53:05.075Z,18.30
2023-05-18T12:55:33.458Z,18.50
2023-05-18T12:58:19.504Z,18.50
2023-05-18T13:00:48.718Z,18.50
2023-05-18T13:03:22.266Z,18.20
2023-05-18T13:06:09.858Z,18.10
2023-05-18T13:08:37.571Z,18.00
2023-05-18T13:11:13.750Z,17.90
2023-05-18T13:14:14.389Z,17.90
2023-05-18T13:16:45.768Z,17.80
2023-05-18T13:19:20.945Z,17.70
2023-05-18T13:22:07.037Z,17.60
2023-05-18T13:24:34.332Z,17.40
2023-05-18T13:27:02.482Z,17.40
2023-05-18T13:29:29.840Z,17.70
2023-05-18T13:31:57.160Z,17.70
2023-05-18T13:34:24.400Z,17.80
2023-05-18T13:36:52.128Z,18.00
2023-05-18T13:39:19.437Z,18.20
2023-05-18T13:41:46.866Z,18.10
2023-05-18T13:44:16.186Z,18.00
2023-05-18T13:46:43.619Z,17.90
2023-05-18T13:49:13.485Z,18.00
2023-05-18T13:51:40.868Z,17.60
2023-05-18T13:54:08.289Z,17.90
2023-05-18T13:56:35.786Z,17.70
2023-05-18T13:59:03.624Z,17.60
2023-05-18T14:01:32.809Z,17.60
2023-05-18T14:04:00.255Z,17.50
2023-05-18T14:06:27.811Z,17.50
2023-05-18T14:08:55.026Z,17.30
2023-05-18T14:11:22.369Z,17.10
2023-05-18T14:13:50.457Z,16.90
2023-05-18T14:16:20.599Z,16.80
2023-05-18T14:18:47.916Z,16.70
2023-05-18T14:21:15.465Z,16.50
2023-05-18T14:23:42.798Z,16.50
2023-05-18T14:26:10.165Z,16.40
2023-05-18T14:28:37.374Z,16.30
2023-05-18T14:31:04.915Z,16.20
2023-05-18T14:33:32.260Z,16.20
2023-05-18T14:36:00.105Z,16.10
2023-05-18T14:38:27.401Z,16.00
2023-05-18T14:40:54.704Z,16.00
2023-05-18T14:43:22.118Z,16.10
2023-05-18T14:46:00.332Z,16.10
2023-05-18T14:48:35.269Z,16.10
2023-05-18T14:51:02.827Z,16.10
2023-05-18T14:53:30.178Z,16.10
2023-05-18T14:55:57.646Z,16.20
2023-05-18T14:58:25.045Z,16.30
2023-05-18T15:00:52.265Z,16.10
2023-05-18T15:03:19.704Z,16.20
2023-05-18T15:05:47.510Z,16.10
2023-05-18T15:08:14.847Z,16.20
2023-05-18T15:10:42.186Z,16.10
2023-05-18T15:13:09.420Z,16.20
2023-05-18T15:15:36.902Z,16.40
2023-05-18T15:18:04.330Z,16.60
2023-05-18T15:20:31.906Z,16.70
2023-05-18T15:22:59.769Z,16.60
2023-05-18T15:25:27.562Z,16.60
2023-05-18T15:27:54.855Z,16.70
2023-05-18T15:30:22.168Z,16.70
2023-05-18T15:32:49.476Z,16.70
2023-05-18T15:35:17.026Z,16.70
2023-05-18T15:37:44.366Z,16.50
2023-05-18T15:40:11.931Z,16.30
2023-05-18T15:42:39.237Z,16.20
2023-05-18T15:45:07.277Z,16.00
2023-05-18T15:47:34.564Z,15.90
2023-05-18T15:50:02.321Z,15.80
2023-05-18T15:52:29.621Z,15.70
2023-05-18T15:54:56.970Z,15.60
2023-05-18T15:57:24.339Z,15.50
2023-05-18T15:59:51.701Z,15.50
2023-05-18T16:02:23.245Z,15.50
2023-05-18T16:04:52.541Z,15.50
2023-05-18T16:07:20.038Z,15.40
2023-05-18T16:09:48.393Z,15.30
2023-05-18T16:12:15.620Z,15.30
2023-05-18T16:14:43.187Z,15.20
2023-05-18T16:17:10.667Z,15.20
2023-05-18T16:19:38.027Z,15.10
2023-05-18T16:22:05.353Z,15.10
2023-05-18T16:24:32.718Z,15.10
2023-05-18T16:27:00.166Z,15.00
2023-05-18T16:29:27.473Z,14.90
2023-05-18T16:31:54.966Z,14.90
2023-05-18T16:34:22.424Z,14.80
2023-05-18T16:36:50.006Z,14.70
2023-05-18T16:39:18.711Z,14.70
2023-05-18T16:41:46.066Z,14.70
2023-05-18T16:44:13.397Z,14.70
2023-05-18T16:46:40.717Z,14.60
2023-05-18T16:49:08.004Z,14.60
2023-05-18T16:51:35.412Z,14.50
2023-05-18T16:54:02.839Z,14.50
2023-05-18T16:56:30.109Z,14.50
2023-05-18T16:58:57.539Z,14.50
2023-05-18T17:01:28.620Z,14.40
2023-05-18T17:03:56.641Z,14.40
2023-05-18T17:06:25.200Z,14.40
2023-05-18T17:08:57.659Z,14.40
2023-05-18T17:11:27.972Z,14.30
2023-05-18T17:13:56.245Z,14.30
2023-05-18T17:16:23.664Z,14.30
2023-05-18T17:18:50.980Z,14.20
2023-05-18T17:21:18.211Z,14.20
2023-05-18T17:23:45.837Z,14.10
2023-05-18T17:26:13.189Z,14.00
2023-05-18T17:28:40.637Z,14.00
2023-05-18T17:31:07.931Z,14.00
2023-05-18T17:33:35.220Z,13.90
2023-05-18T17:36:03.768Z,13.80
2023-05-18T17:38:31.298Z,13.70
2023-05-18T17:40:59.776Z,13.70
2023-05-18T17:43:27.157Z,13.60
2023-05-18T17:45:54.808Z,13.60
2023-05-18T17:48:22.462Z,13.50
2023-05-18T17:50:52.156Z,13.40
2023-05-18T17:53:20.850Z,13.40
2023-05-18T17:55:50.496Z,13.40
2023-05-18T17:58:17.825Z,13.30
2023-05-18T18:00:45.100Z,13.30
2023-05-18T18:03:12.734Z,13.40
2023-05-18T18:05:43.394Z,13.40
2023-05-18T18:08:10.896Z,13.40
2023-05-18T18:10:38.257Z,13.30
2023-05-18T18:13:05.673Z,13.30
2023-05-18T18:15:33.065Z,13.30
2023-05-18T18:18:00.672Z,13.30
2023-05-18T18:20:29.160Z,13.30
2023-05-18T18:22:56.671Z,13.20
2023-05-18T18:25:24.056Z,13.20
2023-05-18T18:27:51.265Z,13.10
2023-05-18T18:30:18.708Z,13.20
2023-05-18T18:32:45.988Z,13.20
2023-05-18T18:35:13.499Z,13.20
2023-05-18T18:37:40.921Z,13.10
2023-05-18T18:40:09.503Z,13.00
2023-05-18T18:42:36.832Z,13.10
2023-05-18T18:45:04.763Z,13.10
2023-05-18T18:47:32.138Z,13.10
2023-05-18T18:49:59.445Z,13.10
2023-05-18T18:52:26.761Z,13.10
2023-05-18T18:54:54.149Z,13.00
2023-05-18T18:57:21.998Z,13.00
2023-05-18T18:59:49.434Z,12.90
2023-05-18T19:02:18.022Z,12.90
2023-05-18T19:04:48.395Z,12.90
2023-05-18T19:07:15.989Z,12.90
2023-05-18T19:09:43.409Z,12.80
2023-05-18T19:12:11.404Z,12.80
2023-05-18T19:14:38.755Z,12.90
2023-05-18T19:17:07.308Z,12.90
2023-05-18T19:19:34.643Z,12.80
2023-05-18T19:22:02.062Z,12.70
2023-05-18T19:24:29.462Z,12.60
2023-05-18T19:26:56.961Z,12.60
2023-05-18T19:29:26.923Z,12.60
2023-05-18T19:31:56.221Z,12.60
2023-05-18T19:34:23.785Z,12.50
2023-05-18T19:36:51.194Z,12.40
2023-05-18T19:39:21.993Z,12.50
2023-05-18T19:41:49.351Z,12.50
2023-05-18T19:44:16.815Z,12.40
2023-05-18T19:46:44.386Z,12.50
2023-05-18T19:49:11.772Z,12.50
2023-05-18T19:51:41.573Z,12.50
2023-05-18T19:54:08.868Z,12.40
2023-05-18T19:56:36.479Z,12.40
2023-05-18T19:59:03.789Z,12.40
2023-05-18T20:01:32.373Z,12.40
2023-05-18T20:04:00.366Z,12.30
2023-05-18T20:06:32.524Z,12.30
2023-05-18T20:09:00.818Z,12.30
2023-05-18T20:11:28.193Z,12.20
2023-05-18T20:13:55.624Z,12.20
2023-05-18T20:16:23.015Z,12.20
2023-05-18T20:18:50.421Z,12.20
2023-05-18T20:21:18.646Z,12.10
2023-05-18T20:23:47.483Z,12.20
2023-05-18T20:26:14.912Z,12.20
2023-05-18T20:28:42.298Z,12.10
2023-05-18T20:31:11.328Z,12.10
2023-05-18T20:33:39.520Z,12.10
2023-05-18T20:36:09.088Z,12.10
2023-05-18T20:38:36.538Z,12.10
2023-05-18T20:41:03.938Z,12.00
2023-05-18T20:43:31.908Z,12.00
2023-05-18T20:45:59.308Z,12.00
2023-05-18T20:48:26.990Z,12.00
2023-05-18T20:50:54.329Z,12.10
2023-05-18T20:53:21.659Z,12.00
2023-05-18T20:55:49.969Z,12.00
2023-05-18T20:58:18.716Z,12.00
2023-05-18T21:00:49.134Z,12.00
2023-05-18T21:03:18.638Z,12.00
2023-05-18T21:05:48.063Z,11.90
2023-05-18T21:08:15.613Z,11.90
2023-05-18T21:10:42.882Z,11.80
2023-05-18T21:13:10.118Z,11.90
2023-05-18T21:15:37.583Z,11.80
2023-05-18T21:18:04.995Z,11.80
2023-05-18T21:20:32.570Z,11.80
2023-05-18T21:22:59.971Z,11.80
2023-05-18T21:25:27.452Z,11.80
2023-05-18T21:27:54.729Z,11.80
2023-05-18T21:30:22.184Z,11.70
2023-05-18T21:32:49.837Z,11.70
2023-05-18T21:35:17.356Z,11.70
2023-05-18T21:37:44.631Z,11.70
2023-05-18T21:40:12.072Z,11.70
2023-05-18T21:42:45.125Z,11.60
2023-05-18T21:45:13.593Z,11.60
2023-05-18T21:47:40.874Z,11.60
2023-05-18T21:50:08.491Z,11.60
2023-05-18T21:52:35.763Z,11.50
2023-05-18T21:55:03.131Z,11.50
2023-05-18T21:57:31.601Z,11.50
2023-05-18T21:59:58.872Z,11.40
2023-05-18T22:02:26.263Z,11.40
2023-05-18T22:04:53.694Z,11.50
2023-05-18T22:07:21.042Z,11.40
2023-05-18T22:09:50.596Z,11.40
2023-05-18T22:12:18.716Z,11.40
2023-05-18T22:14:45.978Z,11.40
2023-05-18T22:17:13.298Z,11.40
2023-05-18T22:19:42.241Z,11.40
2023-05-18T22:22:13.900Z,11.30
2023-05-18T22:24:48.781Z,11.30
2023-05-18T22:27:16.325Z,11.30
2023-05-18T22:29:43.593Z,11.30
2023-05-18T22:32:10.876Z,11.30
2023-05-18T22:34:38.906Z,11.30
2023-05-18T22:37:06.267Z,11.30
2023-05-18T22:39:33.485Z,11.20
2023-05-18T22:42:00.886Z,11.20
2023-05-18T22:44:28.108Z,11.30
2023-05-18T22:46:55.703Z,11.30
2023-05-18T22:49:23.370Z,11.30
2023-05-18T22:51:52.712Z,11.20
2023-05-18T22:54:19.988Z,11.20
2023-05-18T22:56:47.317Z,11.20
2023-05-18T22:59:14.581Z,11.20
2023-05-18T23:01:41.992Z,11.20
2023-05-18T23:04:09.294Z,11.20
2023-05-18T23:06:36.536Z,11.10
2023-05-18T23:09:04.073Z,11.20
2023-05-18T23:11:31.288Z,11.10
2023-05-18T23:14:02.705Z,11.20
2023-05-18T23:16:30.214Z,11.20
2023-05-18T23:18:58.792Z,11.20
2023-05-18T23:21:26.571Z,11.10
2023-05-18T23:23:54.572Z,11.10
2023-05-18T23:26:22.827Z,11.10
2023-05-18T23:28:50.529Z,11.00
2023-05-18T23:31:17.834Z,11.00
2023-05-18T23:33:45.407Z,10.90
2023-05-18T23:36:14.806Z,10.90
2023-05-18T23:38:44.159Z,11.00
2023-05-18T23:41:11.912Z,11.00
2023-05-18T23:43:39.755Z,10.90
2023-05-18T23:46:07.895Z,10.90
2023-05-18T23:48:35.984Z,10.90
2023-05-18T23:51:03.784Z,10.90
2023-05-18T23:53:32.391Z,10.90
2023-05-18T23:56:00.594Z,10.80
2023-05-18T23:58:29.809Z,10.80
